createdAt,value
2018-02-12T00:00:41.807Z,1.97
2018-02-12T00:03:10.464Z,2.33
2018-02-12T00:05:38.938Z,2.20
2018-02-12T00:08:06.822Z,2.53
2018-02-12T00:10:34.466Z,2.10
2018-02-12T00:13:02.062Z,2.37
2018-02-12T00:15:29.641Z,1.70
2018-02-12T00:17:58.011Z,1.87
2018-02-12T00:20:26.612Z,1.50
2018-02-12T00:22:54.239Z,2.07
2018-02-12T00:25:22.117Z,1.83
2018-02-12T00:27:50.497Z,1.53
2018-02-12T00:30:18.989Z,1.50
2018-02-12T00:32:46.575Z,1.50
2018-02-12T00:35:14.301Z,1.93
2018-02-12T00:37:42.694Z,2.00
2018-02-12T00:40:10.342Z,1.60
2018-02-12T00:42:39.658Z,1.70
2018-02-12T00:45:07.274Z,1.47
2018-02-12T00:47:35.518Z,1.97
2018-02-12T00:50:03.844Z,1.33
2018-02-12T00:52:32.220Z,1.33
2018-02-12T00:55:00.577Z,1.17
2018-02-12T00:57:28.964Z,1.03
2018-02-12T00:59:56.596Z,1.10
2018-02-12T01:02:24.253Z,1.10
2018-02-12T01:04:51.944Z,0.90
2018-02-12T01:07:20.044Z,1.00
2018-02-12T01:09:48.360Z,1.10
2018-02-12T01:12:15.988Z,1.00
2018-02-12T01:14:43.554Z,0.87
2018-02-12T01:17:11.161Z,1.00
2018-02-12T01:19:39.641Z,1.20
2018-02-12T01:22:07.230Z,1.50
2018-02-12T01:24:36.040Z,1.30
2018-02-12T01:27:04.611Z,1.43
2018-02-12T01:29:33.026Z,1.40
2018-02-12T01:32:01.368Z,1.40
2018-02-12T01:34:29.907Z,1.20
2018-02-12T01:36:57.854Z,1.67
2018-02-12T01:39:25.532Z,1.57
2018-02-12T01:41:54.758Z,1.97
2018-02-12T01:44:22.629Z,1.87
2018-02-12T01:46:51.045Z,2.00
2018-02-12T01:49:20.805Z,2.33
2018-02-12T01:51:48.407Z,2.60
2018-02-12T01:54:16.252Z,2.27
2018-02-12T01:56:44.626Z,2.37
2018-02-12T01:59:12.990Z,2.07
2018-02-12T02:01:41.197Z,2.60
2018-02-12T02:04:08.761Z,2.00
2018-02-12T02:06:36.364Z,2.00
2018-02-12T02:09:03.957Z,1.63
2018-02-12T02:11:32.385Z,1.40
2018-02-12T02:13:59.989Z,1.70
2018-02-12T02:16:28.382Z,0.83
2018-02-12T02:18:56.745Z,1.27
2018-02-12T02:21:24.420Z,0.77
2018-02-12T02:23:52.814Z,0.80
2018-02-12T02:26:20.418Z,0.90
2018-02-12T02:28:48.247Z,0.90
2018-02-12T02:31:15.869Z,0.90
2018-02-12T02:33:44.633Z,2.10
2018-02-12T02:36:12.232Z,1.00
2018-02-12T02:38:40.560Z,0.80
2018-02-12T02:41:08.205Z,0.80
2018-02-12T02:43:35.768Z,1.73
2018-02-12T02:46:03.570Z,0.70
2018-02-12T02:48:31.208Z,0.87
2018-02-12T02:50:58.777Z,0.97
2018-02-12T02:53:26.424Z,0.87
2018-02-12T02:55:55.211Z,0.50
2018-02-12T02:58:26.724Z,1.20
2018-02-12T03:00:54.352Z,0.60
2018-02-12T03:03:23.165Z,0.80
2018-02-12T03:05:50.896Z,0.80
2018-02-12T03:08:20.419Z,0.67
2018-02-12T03:10:48.821Z,0.70
2018-02-12T03:13:16.522Z,0.70
2018-02-12T03:15:44.181Z,0.90
2018-02-12T03:18:11.821Z,0.93
2018-02-12T03:20:41.290Z,1.10
2018-02-12T03:23:09.961Z,0.87
2018-02-12T03:25:39.337Z,0.70
2018-02-12T03:28:08.410Z,0.73
2018-02-12T03:30:36.566Z,0.90
2018-02-12T03:33:04.193Z,1.00
2018-02-12T03:35:32.697Z,1.30
2018-02-12T03:38:01.465Z,0.80
2018-02-12T03:40:29.049Z,0.97
2018-02-12T03:42:56.692Z,1.00
2018-02-12T03:45:25.109Z,1.00
2018-02-12T03:47:52.819Z,1.20
2018-02-12T03:50:20.620Z,0.67
2018-02-12T03:52:49.317Z,0.90
2018-02-12T03:55:17.076Z,1.27
2018-02-12T03:57:44.674Z,0.83
2018-02-12T04:00:12.306Z,1.70
2018-02-12T04:02:39.882Z,0.77
2018-02-12T04:05:07.492Z,0.77
2018-02-12T04:07:36.023Z,1.27
2018-02-12T04:10:03.663Z,0.90
2018-02-12T04:12:32.128Z,1.13
2018-02-12T04:14:59.795Z,0.90
2018-02-12T04:17:27.933Z,0.80
2018-02-12T04:19:55.764Z,0.90
2018-02-12T04:22:23.368Z,0.90
2018-02-12T04:24:51.782Z,1.60
2018-02-12T04:27:19.649Z,1.37
2018-02-12T04:29:47.201Z,0.97
2018-02-12T04:32:14.910Z,0.80
2018-02-12T04:34:42.678Z,1.10
2018-02-12T04:37:11.286Z,0.97
2018-02-12T04:39:38.926Z,1.50
2018-02-12T04:42:06.577Z,1.07
2018-02-12T04:44:34.206Z,1.00
2018-02-12T04:47:01.889Z,1.37
2018-02-12T04:49:29.696Z,1.30
2018-02-12T04:51:58.155Z,0.97
2018-02-12T04:54:25.892Z,1.27
2018-02-12T04:56:53.620Z,1.20
2018-02-12T04:59:21.361Z,1.40
2018-02-12T05:01:49.010Z,0.97
2018-02-12T05:04:16.648Z,1.30
2018-02-12T05:06:44.480Z,1.80
2018-02-12T05:09:12.118Z,1.23
2018-02-12T05:11:40.489Z,1.60
2018-02-12T05:14:08.121Z,1.30
2018-02-12T05:16:36.706Z,1.20
2018-02-12T05:19:04.277Z,1.40
2018-02-12T05:21:33.596Z,1.30
2018-02-12T05:24:01.966Z,1.10
2018-02-12T05:26:30.370Z,0.63
2018-02-12T05:28:57.949Z,0.90
2018-02-12T05:31:25.741Z,0.90
2018-02-12T05:33:54.170Z,1.10
2018-02-12T05:36:21.733Z,0.80
2018-02-12T05:38:49.668Z,1.00
2018-02-12T05:41:20.083Z,0.67
2018-02-12T05:43:48.724Z,0.70
2018-02-12T05:46:16.903Z,0.90
2018-02-12T05:48:46.570Z,0.87
2018-02-12T05:51:15.262Z,0.90
2018-02-12T05:53:43.688Z,0.90
2018-02-12T05:56:11.357Z,1.33
2018-02-12T05:58:40.525Z,0.93
2018-02-12T06:01:08.424Z,0.83
2018-02-12T06:03:36.076Z,0.87
2018-02-12T06:06:04.415Z,0.80
2018-02-12T06:08:32.009Z,1.00
2018-02-12T06:11:00.305Z,1.20
2018-02-12T06:13:28.914Z,1.20
2018-02-12T06:15:57.299Z,1.00
2018-02-12T06:18:25.673Z,1.53
2018-02-12T06:20:54.650Z,1.30
2018-02-12T06:23:23.006Z,1.10
2018-02-12T06:25:50.664Z,1.43
2018-02-12T06:30:51.949Z,2.00
2018-02-12T06:33:19.556Z,1.10
2018-02-12T06:35:47.224Z,0.80
2018-02-12T06:38:15.215Z,1.40
2018-02-12T06:40:43.090Z,1.23
2018-02-12T06:43:11.073Z,1.50
2018-02-12T06:45:38.673Z,1.10
2018-02-12T06:48:06.276Z,0.83
2018-02-12T06:50:35.049Z,1.43
2018-02-12T06:53:02.680Z,1.20
2018-02-12T06:55:30.228Z,1.30
2018-02-12T06:57:57.929Z,0.90
2018-02-12T07:00:25.549Z,1.33
2018-02-12T07:02:54.710Z,1.40
2018-02-12T07:05:22.354Z,1.40
2018-02-12T07:07:49.994Z,1.73
2018-02-12T07:10:18.088Z,1.60
2018-02-12T07:12:46.009Z,1.57
2018-02-12T07:15:13.683Z,1.10
2018-02-12T07:17:42.637Z,1.50
2018-02-12T07:20:10.204Z,1.30
2018-02-12T07:22:38.550Z,1.40
2018-02-12T07:25:07.057Z,1.40
2018-02-12T07:27:34.859Z,1.23
2018-02-12T07:30:02.594Z,2.10
2018-02-12T07:32:30.977Z,1.23
2018-02-12T07:34:58.679Z,1.23
2018-02-12T07:37:26.278Z,1.50
2018-02-12T07:39:54.634Z,1.00
2018-02-12T07:42:22.250Z,1.77
2018-02-12T07:44:51.242Z,1.30
2018-02-12T07:47:20.422Z,1.20
2018-02-12T07:49:48.786Z,1.73
2018-02-12T07:52:17.173Z,1.63
2018-02-12T07:54:45.548Z,1.20
2018-02-12T07:57:14.008Z,1.00
2018-02-12T07:59:41.690Z,0.80
2018-02-12T08:02:10.025Z,0.90
2018-02-12T08:04:38.261Z,1.00
2018-02-12T08:07:05.893Z,0.80
2018-02-12T08:09:34.514Z,0.70
2018-02-12T08:12:02.163Z,1.10
2018-02-12T08:14:29.877Z,1.20
2018-02-12T08:16:58.606Z,1.00
2018-02-12T08:19:26.700Z,1.37
2018-02-12T08:21:55.262Z,1.13
2018-02-12T08:24:23.648Z,0.97
2018-02-12T08:26:51.287Z,1.00
2018-02-12T08:29:21.086Z,0.93
2018-02-12T08:31:49.033Z,1.07
2018-02-12T08:34:16.714Z,0.80
2018-02-12T08:36:44.597Z,1.27
2018-02-12T08:39:13.328Z,1.30
2018-02-12T08:41:41.169Z,1.20
2018-02-12T08:46:42.151Z,1.50
2018-02-12T08:49:10.736Z,1.33
2018-02-12T08:51:38.382Z,1.23
2018-02-12T08:54:05.998Z,1.23
2018-02-12T08:56:33.597Z,1.50
2018-02-12T08:59:01.168Z,1.47
2018-02-12T09:01:29.641Z,1.10
2018-02-12T09:03:57.955Z,1.27
2018-02-12T09:06:25.678Z,1.73
2018-02-12T09:08:53.385Z,1.27
2018-02-12T09:11:21.184Z,1.30
2018-02-12T09:13:48.966Z,1.60
2018-02-12T09:16:16.525Z,2.00
2018-02-12T09:18:44.105Z,1.57
2018-02-12T09:21:12.713Z,1.67
2018-02-12T09:23:40.333Z,1.77
2018-02-12T09:26:08.238Z,1.70
2018-02-12T09:28:35.820Z,1.47
2018-02-12T09:31:03.502Z,1.27
2018-02-12T09:33:31.087Z,1.30
2018-02-12T09:35:59.017Z,1.10
2018-02-12T09:38:27.860Z,1.40
2018-02-12T09:40:55.521Z,1.10
2018-02-12T09:43:23.159Z,1.10
2018-02-12T09:45:50.837Z,1.20
2018-02-12T09:48:18.584Z,1.23
2018-02-12T09:50:46.174Z,2.13
2018-02-12T09:53:15.078Z,1.57
2018-02-12T09:55:42.663Z,1.20
2018-02-12T09:58:10.990Z,1.37
2018-02-12T10:00:38.674Z,1.83
2018-02-12T10:03:08.187Z,1.27
2018-02-12T10:05:36.053Z,1.50
2018-02-12T10:08:03.753Z,1.30
2018-02-12T10:10:31.664Z,0.90
2018-02-12T10:12:59.660Z,1.50
2018-02-12T10:15:28.886Z,1.30
2018-02-12T10:17:56.709Z,1.53
2018-02-12T10:20:24.369Z,1.10
2018-02-12T10:22:51.977Z,0.90
2018-02-12T10:25:19.555Z,1.50
2018-02-12T10:27:47.162Z,1.23
2018-02-12T10:30:14.749Z,1.07
2018-02-12T10:32:42.383Z,1.20
2018-02-12T10:35:10.760Z,0.80
2018-02-12T10:37:38.320Z,0.70
2018-02-12T10:40:06.030Z,1.07
2018-02-12T10:42:33.603Z,1.20
2018-02-12T10:45:01.218Z,1.63
2018-02-12T10:47:29.664Z,1.53
2018-02-12T10:49:57.347Z,1.20
2018-02-12T10:52:25.729Z,1.90
2018-02-12T10:54:54.106Z,1.53
2018-02-12T10:57:22.465Z,1.37
2018-02-12T10:59:50.045Z,1.40
2018-02-12T11:02:18.705Z,1.43
2018-02-12T11:04:46.440Z,1.80
2018-02-12T11:07:14.104Z,1.50
2018-02-12T11:09:42.614Z,2.57
2018-02-12T11:12:10.205Z,1.93
2018-02-12T11:14:38.619Z,1.57
2018-02-12T11:17:06.213Z,1.77
2018-02-12T11:19:35.422Z,1.27
2018-02-12T11:22:03.126Z,1.63
2018-02-12T11:24:31.455Z,1.63
2018-02-12T11:27:03.482Z,1.50
2018-02-12T11:29:33.703Z,1.73
2018-02-12T11:32:02.668Z,1.40
2018-02-12T11:34:30.843Z,1.33
2018-02-12T11:36:59.594Z,1.50
2018-02-12T11:39:28.902Z,1.50
2018-02-12T11:41:56.687Z,1.83
2018-02-12T11:44:24.886Z,2.03
2018-02-12T11:46:52.896Z,1.83
2018-02-12T11:49:24.503Z,1.90
2018-02-12T11:51:52.334Z,1.70
2018-02-12T11:54:21.030Z,1.60
2018-02-12T11:56:48.813Z,2.47
2018-02-12T11:59:18.219Z,2.13
2018-02-12T12:01:46.697Z,1.77
2018-02-12T12:04:15.282Z,1.40
2018-02-12T12:06:43.266Z,1.17
2018-02-12T12:09:11.815Z,1.70
2018-02-12T12:11:42.701Z,1.40
2018-02-12T12:14:11.499Z,1.30
2018-02-12T12:16:39.569Z,1.87
2018-02-12T12:19:08.118Z,2.07
2018-02-12T12:21:36.620Z,1.77
2018-02-12T12:24:05.442Z,1.47
2018-02-12T12:26:34.044Z,1.47
2018-02-12T12:29:02.881Z,1.10
2018-02-12T12:31:31.266Z,1.47
2018-02-12T12:33:59.950Z,1.40
2018-02-12T12:36:29.251Z,1.07
2018-02-12T12:38:57.183Z,1.70
2018-02-12T12:41:24.891Z,0.90
2018-02-12T12:43:53.152Z,1.00
2018-02-12T12:46:21.054Z,0.90
2018-02-12T12:48:50.353Z,1.20
2018-02-12T12:51:18.899Z,0.93
2018-02-12T12:53:46.513Z,1.20
2018-02-12T12:56:14.109Z,1.00
2018-02-12T12:58:42.432Z,1.20
2018-02-12T13:01:10.807Z,0.90
2018-02-12T13:03:40.157Z,0.90
2018-02-12T13:06:07.870Z,0.70
2018-02-12T13:08:36.334Z,0.93
2018-02-12T13:11:05.304Z,0.90
2018-02-12T13:13:33.528Z,0.70
2018-02-12T13:16:01.866Z,0.40
2018-02-12T13:18:29.482Z,0.67
2018-02-12T13:20:57.106Z,0.50
2018-02-12T13:23:24.684Z,0.60
2018-02-12T13:25:54.175Z,0.67
2018-02-12T13:28:22.562Z,0.50
2018-02-12T13:30:51.692Z,0.80
2018-02-12T13:33:20.093Z,0.67
2018-02-12T13:35:47.668Z,0.87
2018-02-12T13:38:15.303Z,1.13
2018-02-12T13:40:42.929Z,1.20
2018-02-12T13:43:11.449Z,0.90
2018-02-12T13:45:39.996Z,0.80
2018-02-12T13:48:07.562Z,1.10
2018-02-12T13:50:35.229Z,0.70
2018-02-12T13:53:02.792Z,0.73
2018-02-12T13:55:30.453Z,1.03
2018-02-12T13:57:58.013Z,1.40
2018-02-12T14:00:25.656Z,1.27
2018-02-12T14:02:54.557Z,1.07
2018-02-12T14:05:22.677Z,1.17
2018-02-12T14:07:51.556Z,1.50
2018-02-12T14:10:20.519Z,1.00
2018-02-12T14:12:49.766Z,0.97
2018-02-12T14:15:17.374Z,1.10
2018-02-12T14:17:45.006Z,1.03
2018-02-12T14:20:13.377Z,1.20
2018-02-12T14:22:40.988Z,1.30
2018-02-12T14:25:08.585Z,1.47
2018-02-12T14:27:36.204Z,1.43
2018-02-12T14:30:03.804Z,1.10
2018-02-12T14:32:31.458Z,1.20
2018-02-12T14:34:59.132Z,1.30
2018-02-12T14:37:26.734Z,1.27
2018-02-12T14:39:54.581Z,1.03
2018-02-12T14:42:22.940Z,1.17
2018-02-12T14:44:51.275Z,1.60
2018-02-12T14:47:18.840Z,1.43
2018-02-12T14:49:46.441Z,1.10
2018-02-12T14:52:17.225Z,1.50
2018-02-12T14:54:44.985Z,1.60
2018-02-12T14:57:13.331Z,3.13
2018-02-12T14:59:40.942Z,2.33
2018-02-12T15:02:08.518Z,2.13
2018-02-12T15:04:36.373Z,1.90
2018-02-12T15:07:03.946Z,1.40
2018-02-12T15:09:31.502Z,1.17
2018-02-12T15:12:00.026Z,2.00
2018-02-12T15:14:27.655Z,1.83
2018-02-12T15:16:56.062Z,1.30
2018-02-12T15:19:23.614Z,1.73
2018-02-12T15:21:51.824Z,1.30
2018-02-12T15:24:20.333Z,1.20
2018-02-12T15:26:48.675Z,1.17
2018-02-12T15:29:16.232Z,1.20
2018-02-12T15:31:44.378Z,0.83
2018-02-12T15:34:13.122Z,0.80
2018-02-12T15:36:40.725Z,0.50
2018-02-12T15:39:08.422Z,0.80
2018-02-12T15:41:36.060Z,0.70
2018-02-12T15:44:04.495Z,0.63
2018-02-12T15:46:32.149Z,1.10
2018-02-12T15:48:59.771Z,0.60
2018-02-12T15:51:28.365Z,0.80
2018-02-12T15:53:56.158Z,1.33
2018-02-12T15:56:24.238Z,1.20
2018-02-12T15:58:52.344Z,0.97
2018-02-12T16:01:20.830Z,1.33
2018-02-12T16:03:49.279Z,1.10
2018-02-12T16:06:17.639Z,1.00
2018-02-12T16:08:46.079Z,1.37
2018-02-12T16:11:13.943Z,1.40
2018-02-12T16:13:41.633Z,1.23
2018-02-12T16:16:09.244Z,1.20
2018-02-12T16:18:36.875Z,1.67
2018-02-12T16:21:04.558Z,1.40
2018-02-12T16:23:32.923Z,1.73
2018-02-12T16:26:01.261Z,1.87
2018-02-12T16:28:28.947Z,1.30
2018-02-12T16:30:56.602Z,1.90
2018-02-12T16:33:26.048Z,1.87
2018-02-12T16:35:53.629Z,1.90
2018-02-12T16:38:21.368Z,1.70
2018-02-12T16:40:48.997Z,1.70
2018-02-12T16:43:16.684Z,1.50
2018-02-12T16:45:45.530Z,1.70
2018-02-12T16:48:13.086Z,1.63
2018-02-12T16:50:40.725Z,1.00
2018-02-12T16:53:08.353Z,1.30
2018-02-12T16:55:36.024Z,1.30
2018-02-12T16:58:04.096Z,1.77
2018-02-12T17:00:31.761Z,1.40
2018-02-12T17:02:59.593Z,1.40
2018-02-12T17:05:27.827Z,1.17
2018-02-12T17:07:56.192Z,1.10
2018-02-12T17:10:23.762Z,1.77
2018-02-12T17:12:51.352Z,1.47
2018-02-12T17:15:19.135Z,1.53
2018-02-12T17:17:47.512Z,2.20
2018-02-12T17:20:15.952Z,4.23
2018-02-12T17:22:43.634Z,3.47
2018-02-12T17:25:11.193Z,1.80
2018-02-12T17:27:38.797Z,2.33
2018-02-12T17:30:06.353Z,2.27
2018-02-12T17:32:33.980Z,2.30
2018-02-12T17:35:01.549Z,2.23
2018-02-12T17:37:29.929Z,2.40
2018-02-12T17:39:59.183Z,2.13
2018-02-12T17:42:26.742Z,2.17
2018-02-12T17:44:54.358Z,2.33
2018-02-12T17:47:22.693Z,2.70
2018-02-12T17:49:50.374Z,2.83
2018-02-12T17:52:17.961Z,2.67
2018-02-12T17:54:46.902Z,2.60
2018-02-12T17:57:15.359Z,3.67
2018-02-12T17:59:42.954Z,2.70
2018-02-12T18:02:10.528Z,3.23
2018-02-12T18:04:38.861Z,2.80
2018-02-12T18:07:06.465Z,3.17
2018-02-12T18:09:34.045Z,3.40
2018-02-12T18:12:02.394Z,2.63
2018-02-12T18:14:30.115Z,3.10
2018-02-12T18:16:57.758Z,2.17
2018-02-12T18:19:25.417Z,3.80
2018-02-12T18:21:53.018Z,2.47
2018-02-12T18:24:21.191Z,3.23
2018-02-12T18:26:48.802Z,2.60
2018-02-12T18:29:17.337Z,3.03
2018-02-12T18:31:45.344Z,2.60
2018-02-12T18:34:12.936Z,2.43
2018-02-12T18:36:40.532Z,2.70
2018-02-12T18:39:09.173Z,2.83
2018-02-12T18:41:36.982Z,2.60
2018-02-12T18:44:05.401Z,2.13
2018-02-12T18:46:33.929Z,2.27
2018-02-12T18:49:01.781Z,2.37
2018-02-12T18:51:29.483Z,2.30
2018-02-12T18:53:57.092Z,2.90
2018-02-12T18:56:24.877Z,2.37
2018-02-12T18:58:52.509Z,2.60
2018-02-12T19:01:20.863Z,2.67
2018-02-12T19:03:49.218Z,2.57
2018-02-12T19:06:17.033Z,2.30
2018-02-12T19:08:44.886Z,2.53
2018-02-12T19:11:12.503Z,2.83
2018-02-12T19:13:40.150Z,2.67
2018-02-12T19:16:07.782Z,1.80
2018-02-12T19:18:35.413Z,2.20
2018-02-12T19:21:03.749Z,2.80
2018-02-12T19:23:32.254Z,2.67
2018-02-12T19:25:59.853Z,4.00
2018-02-12T19:28:29.002Z,3.40
2018-02-12T19:30:56.578Z,3.30
2018-02-12T19:33:25.263Z,3.17
2018-02-12T19:35:54.737Z,3.37
2018-02-12T19:38:23.204Z,3.80
2018-02-12T19:40:51.488Z,3.07
2018-02-12T19:43:19.257Z,3.23
2018-02-12T19:45:47.084Z,3.40
2018-02-12T19:48:16.465Z,3.27
2018-02-12T19:50:44.857Z,2.40
2018-02-12T19:53:12.482Z,2.90
2018-02-12T19:55:40.073Z,3.30
2018-02-12T19:58:08.921Z,4.40
2018-02-12T20:00:36.479Z,3.60
2018-02-12T20:03:04.085Z,4.07
2018-02-12T20:05:31.648Z,13.93
2018-02-12T20:07:59.252Z,8.93
2018-02-12T20:10:26.824Z,5.27
2018-02-12T20:12:55.475Z,4.17
2018-02-12T20:15:23.078Z,4.27
2018-02-12T20:17:51.447Z,4.90
2018-02-12T20:20:20.869Z,4.80
2018-02-12T20:22:49.496Z,5.20
2018-02-12T20:25:17.506Z,4.70
2018-02-12T20:27:45.093Z,4.63
2018-02-12T20:30:13.421Z,4.30
2018-02-12T20:32:41.300Z,5.10
2018-02-12T20:35:08.866Z,6.40
2018-02-12T20:37:36.542Z,5.20
2018-02-12T20:40:04.902Z,4.83
2018-02-12T20:42:33.153Z,5.30
2018-02-12T20:45:01.003Z,4.73
2018-02-12T20:47:29.981Z,4.90
2018-02-12T20:49:57.634Z,4.80
2018-02-12T20:52:26.613Z,5.10
2018-02-12T20:54:55.473Z,5.00
2018-02-12T20:57:23.078Z,4.97
2018-02-12T20:59:50.705Z,5.20
2018-02-12T21:02:18.274Z,5.00
2018-02-12T21:04:46.612Z,5.33
2018-02-12T21:07:15.645Z,5.10
2018-02-12T21:09:45.710Z,5.03
2018-02-12T21:12:13.334Z,5.07
2018-02-12T21:14:41.701Z,5.77
2018-02-12T21:17:10.106Z,7.17
2018-02-12T21:19:37.809Z,7.30
2018-02-12T21:22:06.296Z,7.20
2018-02-12T21:24:33.909Z,7.40
2018-02-12T21:27:01.477Z,8.97
2018-02-12T21:29:29.086Z,7.97
2018-02-12T21:31:56.688Z,7.60
2018-02-12T21:34:24.314Z,7.73
2018-02-12T21:36:51.987Z,7.70
2018-02-12T21:39:19.697Z,8.23
2018-02-12T21:41:47.266Z,7.33
2018-02-12T21:44:15.368Z,7.70
2018-02-12T21:46:43.725Z,7.93
2018-02-12T21:49:11.477Z,7.87
2018-02-12T21:51:39.082Z,7.07
2018-02-12T21:54:07.565Z,6.83
2018-02-12T21:56:35.256Z,7.07
2018-02-12T21:59:05.163Z,7.37
2018-02-12T22:01:32.893Z,7.03
2018-02-12T22:04:00.756Z,6.83
2018-02-12T22:06:29.449Z,7.30
2018-02-12T22:08:57.990Z,7.30
2018-02-12T22:11:28.711Z,7.67
2018-02-12T22:13:58.091Z,7.07
2018-02-12T22:16:28.609Z,7.23
2018-02-12T22:18:57.164Z,6.70
2018-02-12T22:21:24.776Z,7.50
2018-02-12T22:23:52.373Z,6.30
2018-02-12T22:26:19.978Z,6.13
2018-02-12T22:28:48.370Z,6.93
2018-02-12T22:31:16.199Z,5.37
2018-02-12T22:33:46.562Z,6.03
2018-02-12T22:36:14.196Z,5.50
2018-02-12T22:38:42.545Z,5.87
2018-02-12T22:41:10.517Z,5.10
2018-02-12T22:43:38.894Z,6.03
2018-02-12T22:46:06.588Z,5.97
2018-02-12T22:48:34.932Z,5.63
2018-02-12T22:51:02.538Z,5.43
2018-02-12T22:53:30.096Z,6.77
2018-02-12T22:55:57.668Z,6.63
2018-02-12T22:58:25.310Z,6.80
2018-02-12T23:00:53.156Z,6.93
2018-02-12T23:03:21.598Z,6.73
2018-02-12T23:05:49.220Z,7.73
2018-02-12T23:08:17.780Z,7.50
2018-02-12T23:10:47.117Z,7.20
2018-02-12T23:13:15.442Z,6.43
2018-02-12T23:15:43.150Z,7.40
2018-02-12T23:18:10.729Z,7.30
2018-02-12T23:20:38.302Z,8.17
2018-02-12T23:23:05.917Z,7.57
2018-02-12T23:25:34.282Z,7.50
2018-02-12T23:28:02.641Z,8.30
2018-02-12T23:30:30.547Z,8.40
2018-02-12T23:32:58.109Z,8.57
2018-02-12T23:35:25.752Z,8.47
2018-02-12T23:37:54.087Z,8.17
2018-02-12T23:40:21.785Z,8.40
2018-02-12T23:42:50.929Z,8.30
2018-02-12T23:45:18.662Z,9.07
2018-02-12T23:47:46.242Z,9.00
2018-02-12T23:50:13.998Z,9.03
2018-02-12T23:52:41.692Z,9.33
2018-02-12T23:55:09.337Z,8.20
2018-02-12T23:57:38.162Z,9.70
